createdAt,value
2023-04-18T00:00:40.137Z,94632.00
2023-04-18T00:01:40.184Z,94634.00
2023-04-18T00:02:40.356Z,94634.00
2023-04-18T00:03:40.484Z,94634.00
2023-04-18T00:04:40.357Z,94634.00
2023-04-18T00:05:40.315Z,94632.00
2023-04-18T00:06:40.346Z,94630.00
2023-04-18T00:07:40.389Z,94630.00
2023-04-18T00:08:40.438Z,94628.00
2023-04-18T00:09:40.497Z,94630.00
2023-04-18T00:10:40.501Z,94630.00
2023-04-18T00:11:40.543Z,94628.00
2023-04-18T00:12:40.569Z,94628.00
2023-04-18T00:13:40.621Z,94630.00
2023-04-18T00:14:40.647Z,94630.00
2023-04-18T00:15:40.699Z,94632.00
2023-04-18T00:16:40.803Z,94632.00
2023-04-18T00:17:40.808Z,94630.00
2023-04-18T00:18:40.792Z,94632.00
2023-04-18T00:19:40.853Z,94632.00
2023-04-18T00:20:40.888Z,94630.00
2023-04-18T00:21:40.933Z,94630.00
2023-04-18T00:22:40.957Z,94628.00
2023-04-18T00:23:41.012Z,94628.00
2023-04-18T00:24:41.037Z,94620.00
2023-04-18T00:25:41.076Z,94620.00
2023-04-18T00:26:41.139Z,94620.00
2023-04-18T00:27:41.147Z,94620.00
2023-04-18T00:28:41.199Z,94620.00
2023-04-18T00:29:41.234Z,94618.00
2023-04-18T00:30:41.289Z,94614.00
2023-04-18T00:31:41.303Z,94616.00
2023-04-18T00:32:41.395Z,94618.00
2023-04-18T00:33:41.393Z,94618.00
2023-04-18T00:34:41.429Z,94620.00
2023-04-18T00:35:41.546Z,94620.00
2023-04-18T00:36:41.501Z,94618.00
2023-04-18T00:37:41.499Z,94620.00
2023-04-18T00:38:41.523Z,94618.00
2023-04-18T00:39:41.593Z,94616.00
2023-04-18T00:40:41.612Z,94618.00
2023-04-18T00:41:41.648Z,94618.00
2023-04-18T00:42:41.674Z,94616.00
2023-04-18T00:43:41.717Z,94618.00
2023-04-18T00:44:41.754Z,94618.00
2023-04-18T00:45:41.799Z,94618.00
2023-04-18T00:46:41.837Z,94618.00
2023-04-18T00:47:41.901Z,94616.00
2023-04-18T00:48:41.881Z,94614.00
2023-04-18T00:49:41.952Z,94616.00
2023-04-18T00:50:41.969Z,94610.00
2023-04-18T00:51:42.075Z,94612.00
2023-04-18T00:52:42.071Z,94614.00
2023-04-18T00:53:42.093Z,94612.00
2023-04-18T00:54:42.155Z,94610.00
2023-04-18T00:55:42.187Z,94610.00
2023-04-18T00:56:42.200Z,94610.00
2023-04-18T00:57:42.270Z,94612.00
2023-04-18T00:58:42.293Z,94612.00
2023-04-18T00:59:42.344Z,94612.00
2023-04-18T01:00:42.351Z,94610.00
2023-04-18T01:01:42.414Z,94608.00
2023-04-18T01:02:42.573Z,94610.00
2023-04-18T01:03:42.673Z,94610.00
2023-04-18T01:04:42.740Z,94608.00
2023-04-18T01:05:42.552Z,94612.00
2023-04-18T01:06:42.580Z,94610.00
2023-04-18T01:07:42.612Z,94610.00
2023-04-18T01:08:42.653Z,94610.00
2023-04-18T01:09:42.692Z,94612.00
2023-04-18T01:10:42.736Z,94610.00
2023-04-18T01:11:42.765Z,94612.00
2023-04-18T01:12:42.807Z,94612.00
2023-04-18T01:13:42.834Z,94610.00
2023-04-18T01:14:42.886Z,94610.00
2023-04-18T01:15:42.952Z,94610.00
2023-04-18T01:16:42.966Z,94608.00
2023-04-18T01:17:43.030Z,94608.00
2023-04-18T01:18:43.042Z,94608.00
2023-04-18T01:19:43.066Z,94608.00
2023-04-18T01:20:43.124Z,94605.00
2023-04-18T01:21:43.138Z,94606.00
2023-04-18T01:22:43.200Z,94605.00
2023-04-18T01:23:43.214Z,94605.00
2023-04-18T01:24:43.264Z,94603.00
2023-04-18T01:25:43.294Z,94603.00
2023-04-18T01:26:43.322Z,94599.00
2023-04-18T01:27:43.382Z,94599.00
2023-04-18T01:28:43.394Z,94599.00
2023-04-18T01:29:43.453Z,94597.00
2023-04-18T01:30:43.493Z,94595.00
2023-04-18T01:31:43.619Z,94593.00
2023-04-18T01:32:43.602Z,94593.00
2023-04-18T01:33:43.615Z,94593.00
2023-04-18T01:34:43.656Z,94595.00
2023-04-18T01:35:43.704Z,94593.00
2023-04-18T01:36:43.740Z,94591.00
2023-04-18T01:37:43.757Z,94591.00
2023-04-18T01:38:43.789Z,94595.00
2023-04-18T01:39:43.852Z,94593.00
2023-04-18T01:40:43.873Z,94593.00
2023-04-18T01:41:43.910Z,94593.00
2023-04-18T01:42:43.968Z,94593.00
2023-04-18T01:43:43.992Z,94593.00
2023-04-18T01:44:44.041Z,94591.00
2023-04-18T01:45:44.078Z,94595.00
2023-04-18T01:46:44.125Z,94591.00
2023-04-18T01:47:44.225Z,94593.00
2023-04-18T01:48:44.188Z,94593.00
2023-04-18T01:49:44.234Z,94595.00
2023-04-18T01:50:44.264Z,94593.00
2023-04-18T01:51:44.323Z,94593.00
2023-04-18T01:52:44.368Z,94589.00
2023-04-18T01:53:44.403Z,94591.00
2023-04-18T01:54:44.430Z,94593.00
2023-04-18T01:55:44.579Z,94591.00
2023-04-18T01:56:44.513Z,94591.00
2023-04-18T01:57:44.560Z,94591.00
2023-04-18T01:58:44.608Z,94589.00
2023-04-18T01:59:44.656Z,94589.00
2023-04-18T02:00:44.721Z,94587.00
2023-04-18T02:01:44.753Z,94589.00
2023-04-18T02:02:44.833Z,94587.00
2023-04-18T02:03:44.928Z,94589.00
2023-04-18T02:04:44.824Z,94589.00
2023-04-18T02:05:44.876Z,94591.00
2023-04-18T02:06:44.908Z,94589.00
2023-04-18T02:07:44.943Z,94587.00
2023-04-18T02:08:45.011Z,94587.00
2023-04-18T02:09:45.008Z,94589.00
2023-04-18T02:10:45.086Z,94589.00
2023-04-18T02:11:45.088Z,94587.00
2023-04-18T02:12:45.111Z,94589.00
2023-04-18T02:13:45.165Z,94591.00
2023-04-18T02:14:45.204Z,94591.00
2023-04-18T02:15:45.237Z,94593.00
2023-04-18T02:16:45.380Z,94591.00
2023-04-18T02:17:45.359Z,94593.00
2023-04-18T02:18:45.401Z,94593.00
2023-04-18T02:19:45.394Z,94593.00
2023-04-18T02:20:45.442Z,94593.00
2023-04-18T02:21:45.482Z,94595.00
2023-04-18T02:22:45.527Z,94593.00
2023-04-18T02:23:45.540Z,94591.00
2023-04-18T02:24:45.578Z,94593.00
2023-04-18T02:25:45.638Z,94595.00
2023-04-18T02:26:45.675Z,94595.00
2023-04-18T02:27:45.707Z,94595.00
2023-04-18T02:28:45.718Z,94595.00
2023-04-18T02:29:45.760Z,94595.00
2023-04-18T02:30:45.794Z,94595.00
2023-04-18T02:31:45.936Z,94595.00
2023-04-18T02:32:45.916Z,94595.00
2023-04-18T02:33:45.919Z,94593.00
2023-04-18T02:34:45.985Z,94593.00
2023-04-18T02:35:46.014Z,94591.00
2023-04-18T02:36:46.060Z,94595.00
2023-04-18T02:37:46.096Z,94593.00
2023-04-18T02:38:46.131Z,94593.00
2023-04-18T02:39:46.155Z,94595.00
2023-04-18T02:40:46.185Z,94595.00
2023-04-18T02:41:46.241Z,94595.00
2023-04-18T02:42:46.268Z,94597.00
2023-04-18T02:43:46.321Z,94593.00
2023-04-18T02:44:46.344Z,94595.00
2023-04-18T02:45:46.458Z,94595.00
2023-04-18T02:46:46.464Z,94597.00
2023-04-18T02:47:54.740Z,94597.00
2023-04-18T02:48:47.468Z,94597.00
2023-04-18T02:49:46.463Z,94593.00
2023-04-18T02:50:46.435Z,94597.00
2023-04-18T02:51:46.430Z,94597.00
2023-04-18T02:52:46.441Z,94597.00
2023-04-18T02:53:46.433Z,94597.00
2023-04-18T02:54:46.416Z,94597.00
2023-04-18T02:55:46.407Z,94597.00
2023-04-18T02:56:46.402Z,94599.00
2023-04-18T02:57:46.411Z,94595.00
2023-04-18T02:58:46.398Z,94595.00
2023-04-18T02:59:46.466Z,94595.00
2023-04-18T03:00:46.456Z,94597.00
2023-04-18T03:01:46.601Z,94595.00
2023-04-18T03:02:46.649Z,94597.00
2023-04-18T03:03:46.600Z,94599.00
2023-04-18T03:04:46.642Z,94599.00
2023-04-18T03:05:46.685Z,94599.00
2023-04-18T03:06:46.726Z,94595.00
2023-04-18T03:07:46.751Z,94595.00
2023-04-18T03:08:46.809Z,94593.00
2023-04-18T03:09:46.829Z,94595.00
2023-04-18T03:10:46.855Z,94593.00
2023-04-18T03:11:46.907Z,94589.00
2023-04-18T03:12:46.960Z,94589.00
2023-04-18T03:13:46.988Z,94589.00
2023-04-18T03:14:47.037Z,94585.00
2023-04-18T03:15:47.076Z,94585.00
2023-04-18T03:16:47.106Z,94583.00
2023-04-18T03:17:47.169Z,94583.00
2023-04-18T03:18:47.171Z,94583.00
2023-04-18T03:19:47.229Z,94585.00
2023-04-18T03:20:47.266Z,94583.00
2023-04-18T03:21:47.314Z,94585.00
2023-04-18T03:22:47.330Z,94585.00
2023-04-18T03:23:47.375Z,94587.00
2023-04-18T03:24:47.472Z,94589.00
2023-04-18T03:25:47.451Z,94589.00
2023-04-18T03:26:47.500Z,94589.00
2023-04-18T03:27:47.527Z,94589.00
2023-04-18T03:28:47.562Z,94591.00
2023-04-18T03:29:47.619Z,94589.00
2023-04-18T03:30:47.636Z,94589.00
2023-04-18T03:31:47.727Z,94587.00
2023-04-18T03:32:47.753Z,94589.00
2023-04-18T03:33:47.758Z,94589.00
2023-04-18T03:34:47.806Z,94591.00
2023-04-18T03:35:47.854Z,94591.00
2023-04-18T03:36:48.312Z,94593.00
2023-04-18T03:37:47.944Z,94593.00
2023-04-18T03:38:47.969Z,94593.00
2023-04-18T03:39:48.030Z,94593.00
2023-04-18T03:40:48.068Z,94593.00
2023-04-18T03:41:48.138Z,94593.00
2023-04-18T03:42:48.170Z,94593.00
2023-04-18T03:43:48.191Z,94593.00
2023-04-18T03:44:48.225Z,94591.00
2023-04-18T03:45:48.308Z,94589.00
2023-04-18T03:46:48.341Z,94591.00
2023-04-18T03:47:48.441Z,94589.00
2023-04-18T03:48:48.427Z,94589.00
2023-04-18T03:49:48.470Z,94587.00
2023-04-18T03:50:48.512Z,94589.00
2023-04-18T03:51:48.574Z,94585.00
2023-04-18T03:52:48.575Z,94589.00
2023-04-18T03:53:48.617Z,94589.00
2023-04-18T03:54:48.667Z,94589.00
2023-04-18T03:55:48.715Z,94589.00
2023-04-18T03:56:48.848Z,94589.00
2023-04-18T03:57:48.811Z,94589.00
2023-04-18T03:58:48.857Z,94589.00
2023-04-18T03:59:48.879Z,94587.00
2023-04-18T04:00:48.924Z,94591.00
2023-04-18T04:01:49.033Z,94591.00
2023-04-18T04:02:49.134Z,94589.00
2023-04-18T04:03:49.197Z,94593.00
2023-04-18T04:04:49.170Z,94589.00
2023-04-18T04:05:49.132Z,94591.00
2023-04-18T04:06:49.179Z,94591.00
2023-04-18T04:07:49.231Z,94593.00
2023-04-18T04:08:49.279Z,94597.00
2023-04-18T04:09:49.316Z,94597.00
2023-04-18T04:10:49.353Z,94595.00
2023-04-18T04:11:49.395Z,94595.00
2023-04-18T04:12:49.470Z,94597.00
2023-04-18T04:13:49.485Z,94595.00
2023-04-18T04:14:49.525Z,94597.00
2023-04-18T04:15:49.567Z,94597.00
2023-04-18T04:16:49.763Z,94597.00
2023-04-18T04:17:49.828Z,94599.00
2023-04-18T04:18:49.725Z,94599.00
2023-04-18T04:19:49.767Z,94601.00
2023-04-18T04:20:49.799Z,94601.00
2023-04-18T04:21:49.834Z,94601.00
2023-04-18T04:22:49.886Z,94603.00
2023-04-18T04:23:49.933Z,94603.00
2023-04-18T04:24:49.975Z,94605.00
2023-04-18T04:25:50.024Z,94605.00
2023-04-18T04:26:50.081Z,94606.00
2023-04-18T04:27:50.138Z,94605.00
2023-04-18T04:28:50.159Z,94608.00
2023-04-18T04:29:50.230Z,94605.00
2023-04-18T04:30:50.266Z,94605.00
2023-04-18T04:31:50.324Z,94608.00
2023-04-18T04:32:50.406Z,94608.00
2023-04-18T04:33:50.400Z,94606.00
2023-04-18T04:34:50.453Z,94608.00
2023-04-18T04:35:50.485Z,94610.00
2023-04-18T04:36:50.527Z,94608.00
2023-04-18T04:37:50.575Z,94608.00
2023-04-18T04:38:50.623Z,94610.00
2023-04-18T04:39:50.675Z,94610.00
2023-04-18T04:40:50.710Z,94610.00
2023-04-18T04:41:50.745Z,94610.00
2023-04-18T04:42:50.807Z,94610.00
2023-04-18T04:43:50.863Z,94612.00
2023-04-18T04:44:50.958Z,94616.00
2023-04-18T04:45:50.995Z,94616.00
2023-04-18T04:46:50.970Z,94614.00
2023-04-18T04:47:51.061Z,94620.00
2023-04-18T04:48:51.064Z,94618.00
2023-04-18T04:49:51.152Z,94618.00
2023-04-18T04:50:51.165Z,94632.00
2023-04-18T04:51:51.190Z,94634.00
2023-04-18T04:52:51.230Z,94630.00
2023-04-18T04:53:51.279Z,94636.00
2023-04-18T04:54:51.325Z,94638.00
2023-04-18T04:55:51.371Z,94638.00
2023-04-18T04:56:51.438Z,94636.00
2023-04-18T04:57:51.491Z,94636.00
2023-04-18T04:58:51.548Z,94640.00
2023-04-18T04:59:51.574Z,94642.00
2023-04-18T05:00:51.645Z,94638.00
2023-04-18T05:01:51.721Z,94644.00
2023-04-18T05:02:51.811Z,94642.00
2023-04-18T05:03:51.912Z,94644.00
2023-04-18T05:04:51.819Z,94642.00
2023-04-18T05:05:51.864Z,94642.00
2023-04-18T05:06:51.899Z,94642.00
2023-04-18T05:07:51.932Z,94642.00
2023-04-18T05:08:51.987Z,94642.00
2023-04-18T05:09:52.028Z,94648.00
2023-04-18T05:10:52.060Z,94644.00
2023-04-18T05:11:52.122Z,94646.00
2023-04-18T05:12:52.172Z,94644.00
2023-04-18T05:13:52.226Z,94646.00
2023-04-18T05:14:52.260Z,94642.00
2023-04-18T05:15:52.303Z,94644.00
2023-04-18T05:16:52.350Z,94646.00
2023-04-18T05:17:52.480Z,94644.00
2023-04-18T05:18:52.436Z,94648.00
2023-04-18T05:19:52.489Z,94650.00
2023-04-18T05:20:52.546Z,94646.00
2023-04-18T05:21:52.568Z,94650.00
2023-04-18T05:22:52.668Z,94648.00
2023-04-18T05:23:52.666Z,94646.00
2023-04-18T05:24:52.692Z,94644.00
2023-04-18T05:25:52.736Z,94648.00
2023-04-18T05:26:52.821Z,94648.00
2023-04-18T05:27:52.857Z,94648.00
2023-04-18T05:28:52.877Z,94648.00
2023-04-18T05:29:52.942Z,94648.00
2023-04-18T05:30:53.006Z,94651.00
2023-04-18T05:31:53.012Z,94651.00
2023-04-18T05:32:53.104Z,94650.00
2023-04-18T05:33:53.121Z,94650.00
2023-04-18T05:34:53.119Z,94651.00
2023-04-18T05:35:53.168Z,94651.00
2023-04-18T05:36:53.203Z,94651.00
2023-04-18T05:37:53.240Z,94646.00
2023-04-18T05:38:53.262Z,94648.00
2023-04-18T05:39:53.308Z,94651.00
2023-04-18T05:40:53.305Z,94648.00
2023-04-18T05:41:53.300Z,94648.00
2023-04-18T05:42:53.348Z,94650.00
2023-04-18T05:44:04.245Z,94646.00
2023-04-18T05:44:54.407Z,94648.00
2023-04-18T05:45:54.292Z,94650.00
2023-04-18T05:46:53.408Z,94651.00
2023-04-18T05:47:53.565Z,94650.00
2023-04-18T05:48:53.504Z,94651.00
2023-04-18T05:49:53.573Z,94655.00
2023-04-18T05:50:53.572Z,94657.00
2023-04-18T05:51:53.546Z,94657.00
2023-04-18T05:52:53.638Z,94653.00
2023-04-18T05:53:53.678Z,94657.00
2023-04-18T05:54:54.026Z,94661.00
2023-04-18T05:55:53.792Z,94663.00
2023-04-18T05:56:53.763Z,94665.00
2023-04-18T05:57:53.774Z,94663.00
2023-04-18T05:58:53.784Z,94663.00
2023-04-18T05:59:53.788Z,94667.00
2023-04-18T06:00:53.790Z,94665.00
2023-04-18T06:01:53.882Z,94667.00
2023-04-18T06:02:54.210Z,94671.00
2023-04-18T06:03:54.207Z,94667.00
2023-04-18T06:04:54.178Z,94671.00
2023-04-18T06:05:54.142Z,94673.00
2023-04-18T06:06:54.101Z,94671.00
2023-04-18T06:07:54.161Z,94675.00
2023-04-18T06:08:54.200Z,94673.00
2023-04-18T06:09:54.228Z,94673.00
2023-04-18T06:10:54.273Z,94679.00
2023-04-18T06:11:54.288Z,94679.00
2023-04-18T06:12:54.316Z,94679.00
2023-04-18T06:13:54.486Z,94681.00
2023-04-18T06:14:54.413Z,94683.00
2023-04-18T06:15:54.475Z,94681.00
2023-04-18T06:16:54.450Z,94685.00
2023-04-18T06:17:54.469Z,94685.00
2023-04-18T06:18:54.460Z,94683.00
2023-04-18T06:19:54.506Z,94685.00
2023-04-18T06:20:54.521Z,94687.00
2023-04-18T06:21:54.529Z,94687.00
2023-04-18T06:22:54.545Z,94685.00
2023-04-18T06:23:54.575Z,94691.00
2023-04-18T06:24:54.582Z,94689.00
2023-04-18T06:25:54.602Z,94689.00
2023-04-18T06:26:54.648Z,94693.00
2023-04-18T06:27:54.641Z,94693.00
2023-04-18T06:28:54.686Z,94691.00
2023-04-18T06:29:54.690Z,94687.00
2023-04-18T06:30:54.703Z,94689.00
2023-04-18T06:31:54.769Z,94691.00
2023-04-18T06:32:54.758Z,94681.00
2023-04-18T06:33:54.764Z,94683.00
2023-04-18T06:34:54.785Z,94685.00
2023-04-18T06:35:54.813Z,94687.00
2023-04-18T06:36:54.882Z,94689.00
2023-04-18T06:37:54.943Z,94685.00
2023-04-18T06:38:54.973Z,94691.00
2023-04-18T06:39:55.057Z,94697.00
2023-04-18T06:40:55.091Z,94697.00
2023-04-18T06:41:55.177Z,94691.00
2023-04-18T06:42:55.216Z,94697.00
2023-04-18T06:44:03.612Z,94698.00
2023-04-18T06:44:56.510Z,94695.00
2023-04-18T06:45:55.256Z,94697.00
2023-04-18T06:46:55.253Z,94697.00
2023-04-18T06:47:55.280Z,94695.00
2023-04-18T06:48:55.285Z,94697.00
2023-04-18T06:49:55.223Z,94695.00
2023-04-18T06:50:55.208Z,94698.00
2023-04-18T06:51:55.202Z,94697.00
2023-04-18T06:52:55.210Z,94697.00
2023-04-18T06:53:55.201Z,94697.00
2023-04-18T06:54:55.187Z,94693.00
2023-04-18T06:55:55.194Z,94693.00
2023-04-18T06:56:55.153Z,94691.00
2023-04-18T06:57:55.166Z,94691.00
2023-04-18T06:58:55.512Z,94689.00
2023-04-18T06:59:55.176Z,94687.00
2023-04-18T07:00:55.196Z,94689.00
2023-04-18T07:01:55.236Z,94689.00
2023-04-18T07:02:55.337Z,94689.00
2023-04-18T07:03:55.605Z,94687.00
2023-04-18T07:04:55.335Z,94689.00
2023-04-18T07:05:55.366Z,94687.00
2023-04-18T07:06:55.430Z,94687.00
2023-04-18T07:07:55.554Z,94683.00
2023-04-18T07:08:55.569Z,94683.00
2023-04-18T07:09:55.558Z,94683.00
2023-04-18T07:10:55.625Z,94683.00
2023-04-18T07:11:55.726Z,94681.00
2023-04-18T07:12:55.765Z,94681.00
2023-04-18T07:13:55.801Z,94681.00
2023-04-18T07:14:55.806Z,94681.00
2023-04-18T07:15:55.842Z,94683.00
2023-04-18T07:16:55.849Z,94681.00
2023-04-18T07:17:55.937Z,94681.00
2023-04-18T07:18:55.879Z,94683.00
2023-04-18T07:19:55.885Z,94683.00
2023-04-18T07:20:55.866Z,94683.00
2023-04-18T07:21:55.865Z,94677.00
2023-04-18T07:22:55.892Z,94681.00
2023-04-18T07:23:55.908Z,94681.00
2023-04-18T07:24:55.918Z,94679.00
2023-04-18T07:25:55.938Z,94675.00
2023-04-18T07:26:55.945Z,94679.00
2023-04-18T07:27:55.936Z,94679.00
2023-04-18T07:28:55.951Z,94675.00
2023-04-18T07:29:55.986Z,94671.00
2023-04-18T07:30:56.522Z,94675.00
2023-04-18T07:31:56.098Z,94675.00
2023-04-18T07:32:56.078Z,94673.00
2023-04-18T07:33:56.513Z,94677.00
2023-04-18T07:34:56.075Z,94675.00
2023-04-18T07:35:56.514Z,94675.00
2023-04-18T07:36:56.165Z,94671.00
2023-04-18T07:37:56.208Z,94675.00
2023-04-18T07:38:56.236Z,94679.00
2023-04-18T07:39:56.248Z,94681.00
2023-04-18T07:40:56.546Z,94685.00
2023-04-18T07:41:56.302Z,94681.00
2023-04-18T07:42:56.358Z,94681.00
2023-04-18T07:43:56.540Z,94677.00
2023-04-18T07:44:56.446Z,94677.00
2023-04-18T07:45:56.534Z,94679.00
2023-04-18T07:46:56.495Z,94681.00
2023-04-18T07:47:56.538Z,94683.00
2023-04-18T07:48:57.047Z,94681.00
2023-04-18T07:49:56.558Z,94677.00
2023-04-18T07:50:56.568Z,94679.00
2023-04-18T07:51:56.602Z,94683.00
2023-04-18T07:52:56.582Z,94681.00
2023-04-18T07:53:56.617Z,94677.00
2023-04-18T07:54:56.632Z,94681.00
2023-04-18T07:55:56.665Z,94683.00
2023-04-18T07:56:56.692Z,94681.00
2023-04-18T07:57:56.760Z,94679.00
2023-04-18T07:58:56.851Z,94679.00
2023-04-18T07:59:56.870Z,94681.00
2023-04-18T08:00:56.911Z,94683.00
2023-04-18T08:01:56.972Z,94681.00
2023-04-18T08:02:57.104Z,94681.00
2023-04-18T08:03:57.142Z,94679.00
2023-04-18T08:04:57.268Z,94679.00
2023-04-18T08:05:57.158Z,94679.00
2023-04-18T08:06:57.228Z,94675.00
2023-04-18T08:07:57.269Z,94679.00
2023-04-18T08:08:57.317Z,94679.00
2023-04-18T08:09:57.386Z,94677.00
2023-04-18T08:10:57.467Z,94681.00
2023-04-18T08:11:57.527Z,94679.00
2023-04-18T08:12:57.554Z,94681.00
2023-04-18T08:13:57.608Z,94681.00
2023-04-18T08:14:58.037Z,94683.00
2023-04-18T08:15:57.795Z,94683.00
2023-04-18T08:16:57.794Z,94681.00
2023-04-18T08:17:57.881Z,94677.00
2023-04-18T08:18:57.943Z,94675.00
2023-04-18T08:19:58.027Z,94675.00
2023-04-18T08:20:58.045Z,94675.00
2023-04-18T08:21:58.077Z,94665.00
2023-04-18T08:23:07.577Z,94673.00
2023-04-18T08:23:59.101Z,94665.00
2023-04-18T08:25:04.908Z,94675.00
2023-04-18T08:25:59.085Z,94673.00
2023-04-18T08:26:58.086Z,94675.00
2023-04-18T08:27:58.122Z,94675.00
2023-04-18T08:28:58.155Z,94671.00
2023-04-18T08:29:58.543Z,94667.00
2023-04-18T08:30:58.266Z,94667.00
2023-04-18T08:31:58.363Z,94665.00
2023-04-18T08:32:58.447Z,94665.00
2023-04-18T08:33:58.428Z,94663.00
2023-04-18T08:34:58.536Z,94659.00
2023-04-18T08:35:58.551Z,94655.00
2023-04-18T08:36:58.623Z,94651.00
2023-04-18T08:37:58.668Z,94655.00
2023-04-18T08:38:58.681Z,94659.00
2023-04-18T08:39:58.716Z,94657.00
2023-04-18T08:40:58.751Z,94653.00
2023-04-18T08:41:58.783Z,94651.00
2023-04-18T08:42:58.829Z,94650.00
2023-04-18T08:43:58.855Z,94651.00
2023-04-18T08:44:58.900Z,94650.00
2023-04-18T08:45:58.942Z,94650.00
2023-04-18T08:46:58.919Z,94651.00
2023-04-18T08:47:58.967Z,94651.00
2023-04-18T08:48:58.964Z,94650.00
2023-04-18T08:49:58.965Z,94650.00
2023-04-18T08:50:58.977Z,94653.00
2023-04-18T08:51:59.101Z,94646.00
2023-04-18T08:52:58.961Z,94646.00
2023-04-18T08:53:58.945Z,94644.00
2023-04-18T08:54:58.954Z,94646.00
2023-04-18T08:55:59.051Z,94646.00
2023-04-18T08:56:58.973Z,94646.00
2023-04-18T08:57:58.976Z,94646.00
2023-04-18T08:58:59.005Z,94644.00
2023-04-18T08:59:58.997Z,94644.00
2023-04-18T09:00:59.123Z,94640.00
2023-04-18T09:01:59.287Z,94646.00
2023-04-18T09:02:59.231Z,94644.00
2023-04-18T09:03:59.160Z,94644.00
2023-04-18T09:04:59.140Z,94648.00
2023-04-18T09:05:59.547Z,94646.00
2023-04-18T09:06:59.155Z,94650.00
2023-04-18T09:07:59.165Z,94644.00
2023-04-18T09:08:59.383Z,94646.00
2023-04-18T09:09:59.205Z,94642.00
2023-04-18T09:10:59.254Z,94640.00
2023-04-18T09:11:59.228Z,94638.00
2023-04-18T09:12:59.239Z,94640.00
2023-04-18T09:13:59.324Z,94642.00
2023-04-18T09:14:59.287Z,94640.00
2023-04-18T09:15:59.575Z,94640.00
2023-04-18T09:16:59.453Z,94642.00
2023-04-18T09:17:59.394Z,94638.00
2023-04-18T09:18:59.376Z,94640.00
2023-04-18T09:19:59.444Z,94640.00
2023-04-18T09:20:59.457Z,94636.00
2023-04-18T09:21:59.428Z,94648.00
2023-04-18T09:22:59.445Z,94644.00
2023-04-18T09:23:59.458Z,94640.00
2023-04-18T09:24:59.592Z,94640.00
2023-04-18T09:25:59.532Z,94634.00
2023-04-18T09:26:59.516Z,94640.00
2023-04-18T09:27:59.487Z,94636.00
2023-04-18T09:28:59.469Z,94636.00
2023-04-18T09:29:59.579Z,94640.00
2023-04-18T09:30:59.539Z,94638.00
2023-04-18T09:31:59.522Z,94638.00
2023-04-18T09:32:59.674Z,94642.00
2023-04-18T09:33:59.577Z,94638.00
2023-04-18T09:35:01.372Z,94638.00
2023-04-18T09:36:00.079Z,94636.00
2023-04-18T09:36:59.671Z,94638.00
2023-04-18T09:37:59.614Z,94636.00
2023-04-18T09:38:59.600Z,94636.00
2023-04-18T09:39:59.698Z,94638.00
2023-04-18T09:40:59.595Z,94636.00
2023-04-18T09:41:59.576Z,94632.00
2023-04-18T09:42:59.561Z,94632.00
2023-04-18T09:43:59.554Z,94620.00
2023-04-18T09:44:59.583Z,94632.00
2023-04-18T09:45:59.591Z,94618.00
2023-04-18T09:46:59.567Z,94616.00
2023-04-18T09:47:59.605Z,94614.00
2023-04-18T09:48:59.533Z,94620.00
2023-04-18T09:49:59.540Z,94632.00
2023-04-18T09:50:59.533Z,94612.00
2023-04-18T09:51:59.573Z,94614.00
2023-04-18T09:52:59.501Z,94616.00
2023-04-18T09:53:59.511Z,94612.00
2023-04-18T09:54:59.508Z,94618.00
2023-04-18T09:55:59.539Z,94612.00
2023-04-18T09:56:59.477Z,94618.00
2023-04-18T09:57:59.478Z,94614.00
2023-04-18T09:58:59.461Z,94614.00
2023-04-18T09:59:59.462Z,94610.00
2023-04-18T10:00:59.585Z,94620.00
2023-04-18T10:01:59.640Z,94614.00
2023-04-18T10:02:59.542Z,94608.00
2023-04-18T10:03:59.601Z,94614.00
2023-04-18T10:04:59.505Z,94608.00
2023-04-18T10:05:59.434Z,94612.00
2023-04-18T10:06:59.403Z,94616.00
2023-04-18T10:07:59.472Z,94614.00
2023-04-18T10:08:59.510Z,94605.00
2023-04-18T10:09:59.560Z,94608.00
2023-04-18T10:10:59.638Z,94606.00
2023-04-18T10:11:59.740Z,94610.00
2023-04-18T10:12:59.686Z,94608.00
2023-04-18T10:13:59.716Z,94605.00
2023-04-18T10:14:59.793Z,94601.00
2023-04-18T10:15:59.849Z,94603.00
2023-04-18T10:16:59.855Z,94601.00
2023-04-18T10:18:05.082Z,94603.00
2023-04-18T10:19:01.267Z,94601.00
2023-04-18T10:19:59.887Z,94599.00
2023-04-18T10:20:59.865Z,94593.00
2023-04-18T10:22:00.091Z,94597.00
2023-04-18T10:22:59.891Z,94595.00
2023-04-18T10:23:59.864Z,94595.00
2023-04-18T10:24:59.849Z,94595.00
2023-04-18T10:25:59.850Z,94591.00
2023-04-18T10:27:00.107Z,94589.00
2023-04-18T10:27:59.848Z,94585.00
2023-04-18T10:28:59.828Z,94593.00
2023-04-18T10:29:59.807Z,94585.00
2023-04-18T10:30:59.828Z,94587.00
2023-04-18T10:32:00.043Z,94585.00
2023-04-18T10:32:59.858Z,94585.00
2023-04-18T10:34:05.417Z,94591.00
2023-04-18T10:35:00.760Z,94585.00
2023-04-18T10:36:00.119Z,94583.00
2023-04-18T10:36:59.748Z,94585.00
2023-04-18T10:37:59.758Z,94579.00
2023-04-18T10:38:59.755Z,94583.00
2023-04-18T10:39:59.733Z,94587.00
2023-04-18T10:41:00.126Z,94579.00
2023-04-18T10:41:59.725Z,94581.00
2023-04-18T10:42:59.730Z,94573.00
2023-04-18T10:43:59.732Z,94575.00
2023-04-18T10:44:59.681Z,94573.00
2023-04-18T10:45:59.680Z,94573.00
2023-04-18T10:46:59.735Z,94571.00
2023-04-18T10:47:59.711Z,94571.00
2023-04-18T10:48:59.701Z,94565.00
2023-04-18T10:49:59.730Z,94565.00
2023-04-18T10:50:59.722Z,94571.00
2023-04-18T10:51:59.728Z,94569.00
2023-04-18T10:52:59.784Z,94577.00
2023-04-18T10:53:59.857Z,94565.00
2023-04-18T10:54:59.915Z,94563.00
2023-04-18T10:55:59.982Z,94565.00
2023-04-18T10:57:00.024Z,94559.00
2023-04-18T10:58:00.064Z,94553.00
2023-04-18T10:59:00.106Z,94557.00
2023-04-18T11:00:00.182Z,94557.00
2023-04-18T11:01:00.282Z,94553.00
2023-04-18T11:02:00.256Z,94553.00
2023-04-18T11:03:00.477Z,94557.00
2023-04-18T11:04:00.465Z,94551.00
2023-04-18T11:05:00.297Z,94555.00
2023-04-18T11:06:00.310Z,94559.00
2023-04-18T11:07:00.342Z,94557.00
2023-04-18T11:08:00.369Z,94551.00
2023-04-18T11:09:00.392Z,94553.00
2023-04-18T11:10:00.446Z,94555.00
2023-04-18T11:11:00.596Z,94551.00
2023-04-18T11:12:00.613Z,94555.00
2023-04-18T11:13:00.499Z,94551.00
2023-04-18T11:14:00.498Z,94548.00
2023-04-18T11:15:00.525Z,94542.00
2023-04-18T11:16:00.646Z,94548.00
2023-04-18T11:17:00.610Z,94550.00
2023-04-18T11:18:00.656Z,94544.00
2023-04-18T11:19:00.621Z,94540.00
2023-04-18T11:20:00.675Z,94542.00
2023-04-18T11:21:00.671Z,94540.00
2023-04-18T11:22:01.112Z,94538.00
2023-04-18T11:23:00.702Z,94538.00
2023-04-18T11:24:00.726Z,94540.00
2023-04-18T11:25:00.780Z,94542.00
2023-04-18T11:26:00.769Z,94538.00
2023-04-18T11:27:00.802Z,94540.00
2023-04-18T11:28:00.875Z,94538.00
2023-04-18T11:29:00.859Z,94536.00
2023-04-18T11:30:00.879Z,94530.00
2023-04-18T11:31:00.876Z,94534.00
2023-04-18T11:32:00.908Z,94532.00
2023-04-18T11:33:00.924Z,94536.00
2023-04-18T11:34:00.929Z,94534.00
2023-04-18T11:35:00.950Z,94534.00
2023-04-18T11:36:00.977Z,94536.00
2023-04-18T11:37:01.025Z,94534.00
2023-04-18T11:38:01.025Z,94534.00
2023-04-18T11:39:01.037Z,94528.00
2023-04-18T11:40:01.029Z,94532.00
2023-04-18T11:41:01.041Z,94534.00
2023-04-18T11:42:01.080Z,94530.00
2023-04-18T11:43:01.082Z,94536.00
2023-04-18T11:44:01.181Z,94532.00
2023-04-18T11:45:01.080Z,94538.00